createdAt,value
2023-04-19T00:00:32.519Z,2.80
2023-04-19T00:02:59.176Z,2.77
2023-04-19T00:05:26.357Z,2.80
2023-04-19T00:07:52.874Z,3.00
2023-04-19T00:10:19.560Z,3.20
2023-04-19T00:12:46.144Z,3.07
2023-04-19T00:15:12.688Z,2.57
2023-04-19T00:17:39.283Z,2.90
2023-04-19T00:20:06.495Z,2.77
2023-04-19T00:22:33.044Z,2.87
2023-04-19T00:25:11.858Z,3.10
2023-04-19T00:27:38.517Z,2.67
2023-04-19T00:30:05.651Z,2.70
2023-04-19T00:32:32.246Z,3.10
2023-04-19T00:34:58.844Z,2.67
2023-04-19T00:37:25.395Z,2.87
2023-04-19T00:39:51.886Z,2.70
2023-04-19T00:42:18.430Z,3.20
2023-04-19T00:44:44.939Z,2.90
2023-04-19T00:47:11.490Z,2.97
2023-04-19T00:49:38.058Z,3.00
2023-04-19T00:52:04.842Z,2.70
2023-04-19T00:54:31.409Z,2.90
2023-04-19T00:56:58.432Z,2.80
2023-04-19T00:59:25.128Z,3.20
2023-04-19T01:01:51.750Z,3.20
2023-04-19T01:04:18.562Z,3.20
2023-04-19T01:06:45.849Z,3.20
2023-04-19T01:09:12.381Z,2.87
2023-04-19T01:11:39.110Z,2.90
2023-04-19T01:14:06.401Z,3.20
2023-04-19T01:16:33.509Z,2.87
2023-04-19T01:19:00.178Z,3.10
2023-04-19T01:21:29.395Z,3.13
2023-04-19T01:23:56.006Z,2.80
2023-04-19T01:26:22.592Z,3.00
2023-04-19T01:28:49.081Z,2.63
2023-04-19T01:31:15.638Z,3.03
2023-04-19T01:33:42.232Z,2.90
2023-04-19T01:36:08.811Z,3.00
2023-04-19T01:38:36.034Z,3.17
2023-04-19T01:41:02.561Z,2.90
2023-04-19T01:43:29.144Z,2.70
2023-04-19T01:45:55.847Z,3.07
2023-04-19T01:48:22.357Z,2.47
2023-04-19T01:50:48.922Z,2.97
2023-04-19T01:53:15.502Z,2.93
2023-04-19T01:55:42.549Z,3.20
2023-04-19T01:58:09.811Z,2.60
2023-04-19T02:00:36.347Z,2.77
2023-04-19T02:03:03.023Z,2.90
2023-04-19T02:05:29.716Z,3.20
2023-04-19T02:07:56.262Z,3.10
2023-04-19T02:10:22.830Z,3.03
2023-04-19T02:12:49.346Z,3.07
2023-04-19T02:15:15.900Z,2.80
2023-04-19T02:17:43.461Z,2.90
2023-04-19T02:20:10.852Z,2.60
2023-04-19T02:22:37.416Z,3.13
2023-04-19T02:25:04.809Z,2.97
2023-04-19T02:27:31.372Z,2.93
2023-04-19T02:29:57.891Z,2.80
2023-04-19T02:32:24.414Z,3.20
2023-04-19T02:34:50.978Z,3.10
2023-04-19T02:37:18.415Z,2.93
2023-04-19T02:39:45.986Z,3.40
2023-04-19T02:42:12.630Z,2.90
2023-04-19T02:44:39.108Z,2.80
2023-04-19T02:47:05.864Z,3.23
2023-04-19T02:49:35.724Z,2.70
2023-04-19T02:52:02.319Z,3.10
2023-04-19T02:54:28.945Z,3.33
2023-04-19T02:56:56.605Z,2.90
2023-04-19T02:59:23.133Z,3.07
2023-04-19T03:01:49.676Z,2.80
2023-04-19T03:04:17.360Z,2.90
2023-04-19T03:06:44.400Z,3.30
2023-04-19T03:09:11.425Z,2.90
2023-04-19T03:11:38.658Z,2.90
2023-04-19T03:14:05.242Z,3.10
2023-04-19T03:16:31.722Z,3.00
2023-04-19T03:18:58.282Z,3.10
2023-04-19T03:21:27.472Z,2.93
2023-04-19T03:23:54.755Z,3.00
2023-04-19T03:26:21.317Z,3.33
2023-04-19T03:28:48.502Z,2.97
2023-04-19T03:31:15.054Z,2.77
2023-04-19T03:33:41.620Z,2.70
2023-04-19T03:36:08.462Z,3.20
2023-04-19T03:38:34.974Z,3.30
2023-04-19T03:41:01.530Z,2.77
2023-04-19T03:43:28.116Z,2.87
2023-04-19T03:45:54.688Z,3.10
2023-04-19T03:48:21.382Z,2.83
2023-04-19T03:50:47.944Z,3.23
2023-04-19T03:53:14.515Z,3.03
2023-04-19T03:55:41.045Z,3.10
2023-04-19T03:58:07.599Z,3.00
2023-04-19T04:00:34.105Z,3.30
2023-04-19T04:03:00.759Z,3.00
2023-04-19T04:05:28.475Z,3.03
2023-04-19T04:07:55.044Z,2.93
2023-04-19T04:10:22.066Z,3.17
2023-04-19T04:12:48.607Z,3.23
2023-04-19T04:15:15.150Z,3.13
2023-04-19T04:17:41.728Z,3.00
2023-04-19T04:20:09.049Z,3.30
2023-04-19T04:22:35.636Z,3.07
2023-04-19T04:25:02.183Z,2.83
2023-04-19T04:27:28.734Z,3.07
2023-04-19T04:29:56.741Z,2.90
2023-04-19T04:32:23.741Z,2.97
2023-04-19T04:34:50.548Z,3.13
2023-04-19T04:37:17.886Z,3.10
2023-04-19T04:39:44.462Z,2.80
2023-04-19T04:42:11.019Z,2.73
2023-04-19T04:44:38.920Z,2.80
2023-04-19T04:47:05.465Z,3.20
2023-04-19T04:49:31.999Z,3.10
2023-04-19T04:51:58.730Z,3.30
2023-04-19T04:54:25.252Z,3.40
2023-04-19T04:56:51.810Z,3.17
2023-04-19T04:59:18.925Z,3.13
2023-04-19T05:01:45.526Z,3.00
2023-04-19T05:04:12.115Z,3.40
2023-04-19T05:06:41.188Z,3.23
2023-04-19T05:09:08.150Z,2.93
2023-04-19T05:11:34.709Z,3.07
2023-04-19T05:14:01.325Z,3.50
2023-04-19T05:16:27.916Z,5.77
2023-04-19T05:18:54.512Z,6.57
2023-04-19T05:21:21.749Z,7.70
2023-04-19T05:23:48.413Z,8.70
2023-04-19T05:26:15.584Z,8.90
2023-04-19T05:28:42.271Z,8.73
2023-04-19T05:31:09.207Z,9.97
2023-04-19T05:33:35.784Z,10.23
2023-04-19T05:36:02.322Z,10.47
2023-04-19T05:38:28.933Z,10.50
2023-04-19T05:40:55.449Z,10.33
2023-04-19T05:43:22.066Z,9.83
2023-04-19T05:45:48.586Z,9.77
2023-04-19T05:48:15.090Z,9.63
2023-04-19T05:50:41.622Z,9.63
2023-04-19T05:53:08.159Z,9.20
2023-04-19T05:55:34.689Z,9.63
2023-04-19T05:58:01.306Z,8.90
2023-04-19T06:00:28.553Z,8.90
2023-04-19T06:02:55.188Z,8.33
2023-04-19T06:05:22.081Z,9.93
2023-04-19T06:07:55.349Z,11.30
2023-04-19T06:10:31.205Z,11.83
2023-04-19T06:13:04.096Z,10.80
2023-04-19T06:15:31.064Z,10.27
2023-04-19T06:17:59.320Z,9.50
2023-04-19T06:20:26.420Z,10.13
2023-04-19T06:22:53.210Z,9.37
2023-04-19T06:25:19.873Z,9.37
2023-04-19T06:27:46.509Z,10.30
2023-04-19T06:30:13.885Z,9.50
2023-04-19T06:32:40.510Z,8.87
2023-04-19T06:35:07.766Z,8.47
2023-04-19T06:37:34.864Z,9.03
2023-04-19T06:40:01.767Z,9.33
2023-04-19T06:42:28.396Z,8.90
2023-04-19T06:44:57.138Z,8.60
2023-04-19T06:47:23.723Z,8.67
2023-04-19T06:49:50.376Z,8.47
2023-04-19T06:52:16.943Z,8.70
2023-04-19T06:54:47.675Z,8.63
2023-04-19T06:57:14.231Z,8.10
2023-04-19T06:59:40.847Z,7.87
2023-04-19T07:02:07.485Z,7.93
2023-04-19T07:04:34.519Z,7.90
2023-04-19T07:07:01.125Z,7.80
2023-04-19T07:09:27.614Z,7.27
2023-04-19T07:11:54.238Z,7.67
2023-04-19T07:14:20.782Z,6.87
2023-04-19T07:16:47.522Z,7.80
2023-04-19T07:19:14.131Z,7.80
2023-04-19T07:21:40.917Z,7.13
2023-04-19T07:24:07.567Z,7.07
2023-04-19T07:26:34.447Z,7.17
2023-04-19T07:29:01.189Z,6.77
2023-04-19T07:31:28.124Z,6.97
2023-04-19T07:33:54.702Z,6.53
2023-04-19T07:36:21.500Z,6.67
2023-04-19T07:38:48.111Z,6.77
2023-04-19T07:41:14.711Z,6.17
2023-04-19T07:43:41.575Z,6.70
2023-04-19T07:46:11.968Z,6.70
2023-04-19T07:48:38.589Z,6.27
2023-04-19T07:51:17.764Z,6.40
2023-04-19T07:53:44.533Z,6.00
2023-04-19T07:56:12.904Z,6.80
2023-04-19T07:58:39.668Z,6.03
2023-04-19T08:01:06.209Z,5.50
2023-04-19T08:03:33.846Z,6.43
2023-04-19T08:06:05.602Z,6.33
2023-04-19T08:08:34.055Z,5.63
2023-04-19T08:11:02.386Z,6.60
2023-04-19T08:13:29.610Z,5.93
2023-04-19T08:18:26.123Z,6.40
2023-04-19T08:20:52.856Z,5.50
2023-04-19T08:23:24.548Z,6.17
2023-04-19T08:25:54.264Z,5.47
2023-04-19T08:28:20.918Z,5.67
2023-04-19T08:30:47.560Z,6.00
2023-04-19T08:33:14.235Z,5.60
2023-04-19T08:35:41.577Z,5.37
2023-04-19T08:38:08.611Z,5.53
2023-04-19T08:40:35.290Z,5.73
2023-04-19T08:43:05.476Z,5.83
2023-04-19T08:45:32.079Z,5.80
2023-04-19T08:48:01.197Z,6.47
2023-04-19T08:50:34.535Z,6.33
2023-04-19T08:53:20.857Z,6.30
2023-04-19T08:56:08.619Z,6.10
2023-04-19T08:58:54.724Z,6.43
2023-04-19T09:01:34.961Z,6.10
2023-04-19T09:04:17.096Z,6.00
2023-04-19T09:06:47.993Z,6.53
2023-04-19T09:11:48.254Z,5.70
2023-04-19T09:14:15.767Z,5.90
2023-04-19T09:16:42.964Z,6.10
2023-04-19T09:19:22.297Z,5.97
2023-04-19T09:21:53.012Z,6.13
2023-04-19T09:24:19.588Z,5.80
2023-04-19T09:26:55.652Z,5.87
2023-04-19T09:29:22.194Z,6.37
2023-04-19T09:31:58.893Z,5.37
2023-04-19T09:34:25.624Z,6.10
2023-04-19T09:37:00.625Z,5.63
2023-04-19T09:39:36.230Z,5.97
2023-04-19T09:42:02.966Z,5.13
2023-04-19T09:46:58.976Z,5.30
2023-04-19T09:49:41.770Z,5.37
2023-04-19T09:52:14.003Z,5.60
2023-04-19T09:54:40.578Z,5.20
2023-04-19T09:57:07.163Z,5.37
2023-04-19T09:59:33.747Z,5.30
2023-04-19T10:02:00.406Z,5.37
2023-04-19T10:04:41.613Z,4.83
2023-04-19T10:09:52.427Z,5.30
2023-04-19T10:12:45.668Z,5.07
2023-04-19T10:15:07.939Z,4.40
2023-04-19T10:17:34.519Z,5.13
2023-04-19T10:20:07.045Z,5.00
2023-04-19T10:22:35.081Z,5.00
2023-04-19T10:25:11.324Z,5.33
2023-04-19T10:27:37.890Z,4.80
2023-04-19T10:30:08.094Z,4.80
2023-04-19T10:32:39.183Z,4.80
2023-04-19T10:35:19.173Z,4.83
2023-04-19T10:38:06.234Z,4.80
2023-04-19T10:40:51.334Z,4.57
2023-04-19T10:43:18.806Z,4.73
2023-04-19T10:45:46.330Z,4.93
2023-04-19T10:48:54.387Z,5.00
2023-04-19T10:51:23.103Z,4.90
2023-04-19T10:53:49.596Z,4.67
2023-04-19T10:56:20.904Z,4.70
2023-04-19T10:59:02.484Z,4.70
2023-04-19T11:01:53.190Z,4.90
2023-04-19T11:04:22.885Z,5.00
2023-04-19T11:06:52.793Z,4.27
2023-04-19T11:09:32.001Z,4.70
2023-04-19T11:12:01.195Z,4.67
2023-04-19T11:14:30.092Z,4.30
2023-04-19T11:16:56.672Z,4.30
2023-04-19T11:19:23.294Z,4.30
2023-04-19T11:21:49.909Z,4.20
2023-04-19T11:24:18.724Z,4.50
2023-04-19T11:26:46.175Z,4.00
2023-04-19T11:29:12.909Z,4.40
2023-04-19T11:31:39.616Z,4.23
2023-04-19T11:34:06.243Z,4.60
2023-04-19T11:36:33.885Z,4.40
2023-04-19T11:39:00.505Z,4.20
2023-04-19T11:41:27.072Z,4.50
2023-04-19T11:43:53.597Z,4.50
2023-04-19T11:46:20.139Z,4.30
2023-04-19T11:48:54.016Z,4.30
2023-04-19T11:51:20.715Z,4.37
2023-04-19T11:53:47.946Z,4.57
2023-04-19T11:56:15.551Z,3.80
2023-04-19T11:58:44.827Z,4.40
2023-04-19T12:01:15.890Z,4.63
2023-04-19T12:03:46.061Z,4.40
2023-04-19T12:06:14.392Z,5.00
2023-04-19T12:08:44.941Z,4.50
2023-04-19T12:11:11.478Z,4.30
2023-04-19T12:13:38.112Z,4.43
2023-04-19T12:16:04.974Z,4.40
2023-04-19T12:18:50.294Z,4.80
2023-04-19T12:21:31.695Z,4.60
2023-04-19T12:23:58.760Z,4.70
2023-04-19T12:26:29.125Z,4.90
2023-04-19T12:28:56.158Z,4.70
2023-04-19T12:31:22.875Z,5.07
2023-04-19T12:33:49.455Z,4.97
2023-04-19T12:36:16.018Z,4.87
2023-04-19T12:38:42.707Z,4.40
2023-04-19T12:41:09.283Z,4.97
2023-04-19T12:43:35.794Z,4.90
2023-04-19T12:46:02.308Z,4.80
2023-04-19T12:48:28.979Z,4.83
2023-04-19T12:50:55.711Z,4.60
2023-04-19T12:53:24.264Z,4.37
2023-04-19T12:55:51.383Z,4.87
2023-04-19T12:58:18.372Z,5.20
2023-04-19T13:00:45.036Z,5.27
2023-04-19T13:03:14.722Z,5.27
2023-04-19T13:05:41.477Z,4.90
2023-04-19T13:08:08.010Z,5.10
2023-04-19T13:10:34.583Z,5.10
2023-04-19T13:13:01.145Z,5.37
2023-04-19T13:15:28.708Z,4.63
2023-04-19T13:17:55.452Z,5.07
2023-04-19T13:20:22.053Z,4.63
2023-04-19T13:22:48.632Z,5.23
2023-04-19T13:25:15.199Z,5.17
2023-04-19T13:27:41.830Z,5.47
2023-04-19T13:30:08.844Z,5.30
2023-04-19T13:32:35.515Z,5.70
2023-04-19T13:35:02.042Z,5.47
2023-04-19T13:37:28.717Z,5.40
2023-04-19T13:40:07.018Z,4.87
2023-04-19T13:42:41.760Z,5.27
2023-04-19T13:45:09.596Z,5.63
2023-04-19T13:47:36.162Z,4.87
2023-04-19T13:50:02.669Z,4.57
2023-04-19T13:52:29.200Z,4.80
2023-04-19T13:54:55.917Z,4.40
2023-04-19T13:57:22.438Z,4.30
2023-04-19T13:59:48.954Z,4.60
2023-04-19T14:02:15.599Z,5.07
2023-04-19T14:04:42.237Z,4.77
2023-04-19T14:07:08.830Z,4.80
2023-04-19T14:09:36.678Z,4.50
2023-04-19T14:12:04.521Z,4.57
2023-04-19T14:14:32.438Z,4.23
2023-04-19T14:16:59.151Z,4.47
2023-04-19T14:19:26.314Z,4.20
2023-04-19T14:21:52.887Z,4.30
2023-04-19T14:24:19.453Z,4.07
2023-04-19T14:26:48.708Z,4.30
2023-04-19T14:29:21.105Z,4.50
2023-04-19T14:31:47.667Z,4.40
2023-04-19T14:34:14.307Z,4.27
2023-04-19T14:36:40.844Z,4.57
2023-04-19T14:39:08.016Z,4.07
2023-04-19T14:41:34.522Z,4.57
2023-04-19T14:44:01.239Z,4.40
2023-04-19T14:46:27.839Z,4.27
2023-04-19T14:48:54.453Z,3.90
2023-04-19T14:51:21.048Z,4.30
2023-04-19T14:53:47.574Z,4.40
2023-04-19T14:56:14.102Z,4.17
2023-04-19T14:58:40.723Z,4.07
2023-04-19T15:01:13.816Z,4.13
2023-04-19T15:03:40.584Z,3.87
2023-04-19T15:06:07.696Z,3.60
2023-04-19T15:08:34.218Z,4.17
2023-04-19T15:11:00.756Z,4.00
2023-04-19T15:13:27.332Z,3.97
2023-04-19T15:15:53.897Z,3.60
2023-04-19T15:18:20.417Z,3.63
2023-04-19T15:20:46.958Z,4.03
2023-04-19T15:23:13.479Z,4.03
2023-04-19T15:25:40.139Z,3.90
2023-04-19T15:28:06.683Z,4.43
2023-04-19T15:30:33.234Z,3.57
2023-04-19T15:32:59.782Z,3.70
2023-04-19T15:35:26.302Z,3.70
2023-04-19T15:37:52.797Z,3.40
2023-04-19T15:40:19.414Z,3.60
2023-04-19T15:42:46.352Z,3.60
2023-04-19T15:45:13.054Z,3.37
2023-04-19T15:47:39.662Z,3.87
2023-04-19T15:50:06.687Z,3.63
2023-04-19T15:52:33.184Z,3.60
2023-04-19T15:54:59.705Z,3.60
2023-04-19T15:57:26.208Z,3.23
2023-04-19T15:59:52.708Z,3.53
2023-04-19T16:02:19.409Z,2.80
2023-04-19T16:04:49.753Z,3.53
2023-04-19T16:07:16.514Z,3.50
2023-04-19T16:09:43.082Z,3.43
2023-04-19T16:12:10.266Z,3.33
2023-04-19T16:14:36.757Z,3.40
2023-04-19T16:17:03.274Z,3.60
2023-04-19T16:19:29.800Z,3.40
2023-04-19T16:21:56.819Z,3.37
2023-04-19T16:24:23.325Z,3.40
2023-04-19T16:26:52.043Z,3.47
2023-04-19T16:29:18.911Z,4.03
2023-04-19T16:31:45.855Z,3.97
2023-04-19T16:34:12.518Z,4.13
2023-04-19T16:36:39.061Z,4.40
2023-04-19T16:39:05.815Z,4.27
2023-04-19T16:41:32.347Z,3.80
2023-04-19T16:43:58.939Z,3.90
2023-04-19T16:46:25.461Z,4.00
2023-04-19T16:48:51.997Z,3.87
2023-04-19T16:51:18.517Z,3.53
2023-04-19T16:53:45.740Z,3.63
2023-04-19T16:56:12.336Z,4.10
2023-04-19T16:58:38.883Z,3.60
2023-04-19T17:01:05.689Z,3.80
2023-04-19T17:03:32.467Z,3.67
2023-04-19T17:05:59.151Z,3.40
2023-04-19T17:08:26.584Z,3.60
2023-04-19T17:10:53.168Z,3.80
2023-04-19T17:13:19.745Z,3.87
2023-04-19T17:15:46.518Z,3.33
2023-04-19T17:18:13.218Z,3.70
2023-04-19T17:20:39.829Z,3.10
2023-04-19T17:23:06.482Z,3.40
2023-04-19T17:25:32.993Z,3.57
2023-04-19T17:27:59.560Z,3.30
2023-04-19T17:30:26.226Z,3.33
2023-04-19T17:32:52.970Z,3.07
2023-04-19T17:35:19.644Z,3.10
2023-04-19T17:37:46.250Z,3.53
2023-04-19T17:40:13.076Z,3.07
2023-04-19T17:42:39.616Z,3.70
2023-04-19T17:45:10.974Z,3.43
2023-04-19T17:47:38.609Z,3.03
2023-04-19T17:50:10.185Z,3.10
2023-04-19T17:52:36.788Z,3.07
2023-04-19T17:55:04.745Z,3.13
2023-04-19T17:57:33.622Z,3.10
2023-04-19T18:00:00.903Z,2.80
2023-04-19T18:02:27.876Z,3.13
2023-04-19T18:04:54.894Z,3.27
2023-04-19T18:07:21.557Z,2.70
2023-04-19T18:09:48.154Z,3.23
2023-04-19T18:12:14.714Z,3.07
2023-04-19T18:14:41.312Z,3.00
2023-04-19T18:17:08.024Z,3.20
2023-04-19T18:19:34.603Z,3.23
2023-04-19T18:22:01.647Z,3.23
2023-04-19T18:24:28.213Z,3.30
2023-04-19T18:26:54.752Z,2.67
2023-04-19T18:29:23.125Z,3.17
2023-04-19T18:31:49.661Z,3.37
2023-04-19T18:34:16.314Z,3.20
2023-04-19T18:36:42.833Z,3.37
2023-04-19T18:39:09.382Z,3.20
2023-04-19T18:41:35.994Z,3.20
2023-04-19T18:46:32.194Z,3.37
2023-04-19T18:48:58.777Z,3.30
2023-04-19T18:51:26.721Z,3.03
2023-04-19T18:53:53.244Z,3.20
2023-04-19T18:56:19.825Z,3.07
2023-04-19T18:58:46.448Z,2.90
2023-04-19T19:01:13.058Z,3.20
2023-04-19T19:04:07.766Z,3.00
2023-04-19T19:06:26.690Z,3.07
2023-04-19T19:08:54.947Z,3.10
2023-04-19T19:11:47.197Z,3.27
2023-04-19T19:14:08.414Z,3.27
2023-04-19T19:19:07.130Z,3.10
2023-04-19T19:21:33.663Z,3.10
2023-04-19T19:24:00.215Z,3.07
2023-04-19T19:26:26.799Z,3.60
2023-04-19T19:28:53.659Z,3.60
2023-04-19T19:31:20.282Z,3.30
2023-04-19T19:33:56.956Z,3.40
2023-04-19T19:36:34.478Z,3.27
2023-04-19T19:39:01.137Z,3.27
2023-04-19T19:42:00.540Z,3.50
2023-04-19T19:44:14.184Z,3.20
2023-04-19T19:46:40.798Z,3.00
2023-04-19T19:49:12.154Z,3.27
2023-04-19T19:51:56.817Z,3.37
2023-04-19T19:54:24.619Z,3.20
2023-04-19T19:59:21.229Z,5.43
2023-04-19T20:01:49.144Z,5.40
2023-04-19T20:04:15.965Z,5.00
2023-04-19T20:09:12.776Z,5.47
2023-04-19T20:11:39.335Z,4.90
2023-04-19T20:14:06.013Z,4.73
2023-04-19T20:16:33.556Z,4.33
2023-04-19T20:19:00.230Z,4.97
2023-04-19T20:21:26.769Z,4.70
2023-04-19T20:23:53.987Z,4.60
2023-04-19T20:26:20.590Z,5.10
2023-04-19T20:28:47.178Z,4.90
2023-04-19T20:31:13.719Z,4.37
2023-04-19T20:33:40.638Z,4.23
2023-04-19T20:36:07.391Z,4.30
2023-04-19T20:38:34.654Z,4.77
2023-04-19T20:41:01.365Z,4.53
2023-04-19T20:43:27.931Z,4.30
2023-04-19T20:45:54.497Z,4.70
2023-04-19T20:48:21.128Z,4.37
2023-04-19T20:50:47.623Z,4.87
2023-04-19T20:53:14.198Z,3.90
2023-04-19T20:55:40.873Z,4.07
2023-04-19T20:58:07.420Z,4.20
2023-04-19T21:00:33.942Z,4.20
2023-04-19T21:03:00.756Z,3.77
2023-04-19T21:05:27.447Z,3.87
2023-04-19T21:07:54.023Z,4.53
2023-04-19T21:10:22.093Z,4.20
2023-04-19T21:12:49.425Z,4.40
2023-04-19T21:15:16.100Z,3.93
2023-04-19T21:17:42.743Z,4.10
2023-04-19T21:20:13.427Z,3.73
2023-04-19T21:22:43.459Z,3.97
2023-04-19T21:25:10.586Z,4.20
2023-04-19T21:27:37.114Z,4.17
2023-04-19T21:30:04.468Z,3.60
2023-04-19T21:32:31.174Z,3.87
2023-04-19T21:34:58.775Z,4.17
2023-04-19T21:37:25.390Z,4.07
2023-04-19T21:39:52.027Z,3.60
2023-04-19T21:42:18.570Z,4.20
2023-04-19T21:44:45.165Z,3.77
2023-04-19T21:47:11.970Z,3.50
2023-04-19T21:49:38.702Z,3.93
2023-04-19T21:52:06.220Z,3.87
2023-04-19T21:54:34.340Z,4.10
2023-04-19T21:57:01.526Z,3.63
2023-04-19T21:59:28.402Z,3.77
2023-04-19T22:01:54.949Z,3.40
2023-04-19T22:04:21.561Z,3.57
2023-04-19T22:06:48.110Z,3.80
2023-04-19T22:09:14.773Z,3.13
2023-04-19T22:11:41.936Z,3.63
2023-04-19T22:14:09.114Z,3.40
2023-04-19T22:16:35.846Z,3.40
2023-04-19T22:19:03.028Z,3.70
2023-04-19T22:21:30.797Z,3.50
2023-04-19T22:23:57.391Z,3.37
2023-04-19T22:26:26.076Z,3.30
2023-04-19T22:28:53.626Z,3.40
2023-04-19T22:31:20.177Z,3.30
2023-04-19T22:33:46.728Z,3.40
2023-04-19T22:36:13.295Z,3.10
2023-04-19T22:38:39.866Z,3.00
2023-04-19T22:41:06.460Z,3.40
2023-04-19T22:43:33.193Z,3.33
2023-04-19T22:46:00.099Z,3.33
2023-04-19T22:48:28.047Z,3.43
2023-04-19T22:50:54.642Z,2.83
2023-04-19T22:53:21.130Z,3.20
2023-04-19T22:55:47.734Z,3.47
2023-04-19T22:58:14.293Z,3.57
2023-04-19T23:00:40.966Z,3.10
2023-04-19T23:03:07.610Z,3.20
2023-04-19T23:05:34.199Z,3.20
2023-04-19T23:08:03.998Z,2.97
2023-04-19T23:10:31.671Z,3.07
2023-04-19T23:12:58.265Z,3.00
2023-04-19T23:15:24.934Z,3.10
2023-04-19T23:17:52.516Z,2.63
2023-04-19T23:20:19.095Z,2.90
2023-04-19T23:22:45.808Z,3.37
2023-04-19T23:25:12.360Z,2.93
2023-04-19T23:27:38.878Z,3.17
2023-04-19T23:30:07.339Z,3.13
2023-04-19T23:32:33.926Z,3.20
2023-04-19T23:35:00.617Z,3.10
2023-04-19T23:37:27.135Z,2.67
2023-04-19T23:39:53.661Z,3.33
2023-04-19T23:42:20.478Z,3.37
2023-04-19T23:44:47.010Z,2.90
2023-04-19T23:47:13.490Z,3.00
2023-04-19T23:49:39.989Z,3.27
2023-04-19T23:52:06.561Z,2.70
2023-04-19T23:54:33.079Z,2.97
2023-04-19T23:56:59.700Z,3.43
2023-04-19T23:59:29.100Z,3.10
